Time;durP1;ratioP1;P1;durP2;ratioP2;P2;SDS_P1;SDS_P2;PMS_P1;PMS_P2;Temp;Humidity;BMP_temperature;BMP_pressure;BME280_temperature;BME280_humidity;BME280_pressure;Samples;Min_cycle;Max_cycle;Signal;HPM_P1;HPM_P2
2022/02/19 00:01:00;;;;;;;12.73;6.20;;;1.20;99.90;;;;;;4942591;29;20027;-90
2022/02/19 00:03:26;;;;;;;12.80;6.47;;;1.20;99.90;;;;;;4941334;29;20436;-88
2022/02/19 00:05:51;;;;;;;12.60;5.70;;;1.30;99.90;;;;;;4961828;29;20102;-87
2022/02/19 00:08:17;;;;;;;13.43;6.25;;;1.30;99.90;;;;;;4962788;29;20027;-88
2022/02/19 00:10:44;;;;;;;8.82;5.10;;;1.30;99.90;;;;;;4958270;29;20115;-88
2022/02/19 00:13:09;;;;;;;7.70;4.55;;;1.30;99.90;;;;;;4941295;29;20024;-87
2022/02/19 00:15:36;;;;;;;12.00;6.18;;;1.30;99.90;;;;;;4941037;29;20027;-88
2022/02/19 00:18:02;;;;;;;9.35;5.70;;;1.30;99.90;;;;;;4958645;29;20385;-88
2022/02/19 00:20:30;;;;;;;9.70;5.47;;;1.30;99.90;;;;;;4941480;29;20023;-89
2022/02/19 00:22:56;;;;;;;13.75;6.50;;;1.30;99.90;;;;;;4958012;28;20030;-87
2022/02/19 00:25:22;;;;;;;14.18;7.03;;;1.20;99.90;;;;;;4941197;29;20106;-87
2022/02/19 00:27:48;;;;;;;11.23;5.60;;;1.20;99.90;;;;;;4943153;29;20058;-88
2022/02/19 00:30:14;;;;;;;13.18;6.75;;;1.20;99.90;;;;;;4940781;29;20074;-88
2022/02/19 00:32:40;;;;;;;11.23;6.60;;;1.10;99.90;;;;;;4940765;29;20047;-88
2022/02/19 00:35:06;;;;;;;9.52;5.93;;;1.10;99.90;;;;;;4957971;29;20351;-88
2022/02/19 00:37:31;;;;;;;13.18;7.07;;;1.00;99.90;;;;;;4946692;29;20034;-88
2022/02/19 00:39:57;;;;;;;12.63;6.30;;;1.00;99.90;;;;;;4958945;29;20028;-88
2022/02/19 00:42:23;;;;;;;10.75;5.88;;;1.00;99.90;;;;;;4941145;29;20055;-88
2022/02/19 00:44:50;;;;;;;14.55;6.88;;;1.00;99.90;;;;;;4959440;29;20027;-88
2022/02/19 00:47:16;;;;;;;12.23;6.57;;;1.00;99.90;;;;;;4959784;29;20110;-88
2022/02/19 00:49:42;;;;;;;11.82;6.15;;;0.90;99.90;;;;;;4941352;29;20441;-87
2022/02/19 00:52:07;;;;;;;13.68;7.88;;;0.90;99.90;;;;;;4940855;29;20468;-86
2022/02/19 00:54:33;;;;;;;20.08;11.15;;;0.80;99.90;;;;;;4940901;29;20042;-86
2022/02/19 00:56:59;;;;;;;19.33;11.00;;;0.80;99.90;;;;;;4958047;29;20031;-88
2022/02/19 00:59:25;;;;;;;21.40;11.70;;;0.80;99.90;;;;;;4941295;29;20023;-88
2022/02/19 01:01:51;;;;;;;17.52;10.23;;;0.70;99.90;;;;;;4959793;29;20493;-86
2022/02/19 01:04:17;;;;;;;17.77;9.13;;;0.60;99.90;;;;;;4944793;29;20035;-88
2022/02/19 01:06:44;;;;;;;14.52;8.43;;;0.60;99.90;;;;;;4940991;29;20023;-86
2022/02/19 01:09:10;;;;;;;15.07;7.63;;;0.60;99.90;;;;;;4941984;29;20073;-86
2022/02/19 01:11:39;;;;;;;11.02;7.20;;;0.60;99.90;;;;;;4940139;29;20023;-86
2022/02/19 01:14:09;;;;;;;19.42;8.10;;;0.50;99.90;;;;;;4957276;29;20441;-88
2022/02/19 01:16:35;;;;;;;12.95;7.00;;;0.60;99.90;;;;;;4940099;29;20027;-87
2022/02/19 01:19:01;;;;;;;10.88;6.80;;;0.50;99.90;;;;;;4940037;29;20054;-88
2022/02/19 01:21:26;;;;;;;11.50;6.07;;;0.50;99.90;;;;;;4957553;29;20035;-87
2022/02/19 01:23:52;;;;;;;12.35;6.80;;;0.50;99.90;;;;;;4957305;29;20023;-86
2022/02/19 01:26:19;;;;;;;12.93;6.57;;;0.50;99.90;;;;;;4956433;29;20026;-87
2022/02/19 01:28:44;;;;;;;12.48;6.38;;;0.50;99.90;;;;;;4956872;29;20027;-86
2022/02/19 01:31:10;;;;;;;11.82;6.22;;;0.50;99.90;;;;;;4944731;29;20024;-85
2022/02/19 01:33:36;;;;;;;10.20;5.95;;;0.40;99.90;;;;;;4958113;28;20493;-87
2022/02/19 01:36:02;;;;;;;9.73;5.80;;;0.50;99.90;;;;;;4938770;29;20019;-88
2022/02/19 01:38:29;;;;;;;12.75;5.88;;;0.40;99.90;;;;;;4956938;29;20102;-87
2022/02/19 01:40:56;;;;;;;11.43;6.57;;;0.40;99.90;;;;;;4957324;29;20031;-88
2022/02/19 01:43:23;;;;;;;14.60;7.35;;;0.30;99.90;;;;;;4957933;29;20023;-86
2022/02/19 01:45:49;;;;;;;9.55;5.90;;;0.30;99.90;;;;;;4955671;29;20450;-86
2022/02/19 01:48:16;;;;;;;11.68;6.60;;;0.30;99.90;;;;;;4956610;29;20034;-87
2022/02/19 01:50:42;;;;;;;11.18;6.22;;;0.30;99.90;;;;;;4956713;29;20020;-86
2022/02/19 01:53:09;;;;;;;14.90;7.20;;;0.20;99.90;;;;;;4939857;29;20024;-87
2022/02/19 01:55:35;;;;;;;12.65;6.85;;;0.20;99.90;;;;;;4939450;29;20037;-86
2022/02/19 01:58:02;;;;;;;15.25;7.40;;;0.20;99.90;;;;;;4940017;29;20031;-86
2022/02/19 02:00:29;;;;;;;11.38;6.35;;;0.20;99.90;;;;;;4946057;29;20082;-86
2022/02/19 02:02:56;;;;;;;11.35;6.53;;;0.20;99.90;;;;;;4939513;29;20027;-86
2022/02/19 02:05:22;;;;;;;12.48;6.55;;;0.20;99.90;;;;;;4956268;29;20030;-87
2022/02/19 02:07:48;;;;;;;14.88;7.75;;;0.20;99.90;;;;;;4956570;29;20027;-86
2022/02/19 02:10:15;;;;;;;14.07;7.32;;;0.20;99.90;;;;;;4957743;29;20023;-87
2022/02/19 02:12:41;;;;;;;12.35;6.88;;;0.20;99.90;;;;;;4957042;29;20019;-86
2022/02/19 02:15:29;;;;;;;11.02;6.70;;;0.30;99.90;;;;;;4939176;29;20039;-87
2022/02/19 02:17:57;;;;;;;13.40;7.00;;;0.20;99.90;;;;;;4956655;29;20446;-87
2022/02/19 02:20:23;;;;;;;14.90;7.15;;;0.20;99.90;;;;;;4938468;29;20118;-89
2022/02/19 02:22:49;;;;;;;13.13;7.65;;;0.20;99.90;;;;;;4938416;29;20509;-88
2022/02/19 02:25:16;;;;;;;13.98;7.13;;;0.20;99.90;;;;;;4956196;29;20090;-88
2022/02/19 02:27:43;;;;;;;13.80;7.45;;;0.20;99.90;;;;;;4959661;29;20096;-85
2022/02/19 02:30:09;;;;;;;15.75;7.85;;;0.20;99.90;;;;;;4960207;29;20485;-89
2022/02/19 02:32:35;;;;;;;13.73;6.68;;;0.20;99.90;;;;;;4944108;29;20058;-86
2022/02/19 02:35:00;;;;;;;13.48;7.00;;;0.20;99.90;;;;;;4967317;29;20030;-88
2022/02/19 02:37:26;;;;;;;16.17;7.88;;;0.20;99.90;;;;;;4960518;29;20114;-88
2022/02/19 02:39:52;;;;;;;13.43;7.20;;;0.20;99.90;;;;;;4955178;29;20042;-88
2022/02/19 02:42:21;;;;;;;17.48;8.35;;;0.20;99.90;;;;;;4938594;29;20139;-89
2022/02/19 02:44:47;;;;;;;14.85;7.63;;;0.20;99.90;;;;;;4956361;29;20031;-87
2022/02/19 02:47:13;;;;;;;15.40;8.63;;;0.20;99.90;;;;;;4958445;28;20033;-88
2022/02/19 02:49:39;;;;;;;15.45;7.72;;;0.20;99.90;;;;;;4958705;29;20126;-88
2022/02/19 02:52:07;;;;;;;17.20;8.82;;;0.30;99.90;;;;;;4958745;29;20027;-88
2022/02/19 02:54:33;;;;;;;13.35;8.50;;;0.30;99.90;;;;;;4959902;29;20020;-87
2022/02/19 02:56:59;;;;;;;15.43;8.32;;;0.30;99.90;;;;;;4949612;29;20039;-87
2022/02/19 02:59:25;;;;;;;15.98;8.77;;;0.30;99.90;;;;;;4959544;29;20023;-88
2022/02/19 03:01:51;;;;;;;19.10;10.27;;;0.30;99.90;;;;;;4960292;29;20489;-88
2022/02/19 03:04:16;;;;;;;17.50;9.52;;;0.30;99.90;;;;;;4943945;29;20050;-88
2022/02/19 03:06:42;;;;;;;18.30;9.13;;;0.30;99.90;;;;;;4960517;29;20037;-88
2022/02/19 03:09:08;;;;;;;15.45;8.45;;;0.30;99.90;;;;;;4959759;29;20082;-89
2022/02/19 03:11:35;;;;;;;14.10;7.78;;;0.30;99.90;;;;;;4942793;29;20019;-88
2022/02/19 03:14:02;;;;;;;16.08;7.30;;;0.30;99.90;;;;;;4958851;29;20062;-89
2022/02/19 03:16:28;;;;;;;16.05;7.20;;;0.30;99.90;;;;;;4943066;29;20438;-89
2022/02/19 03:18:54;;;;;;;12.25;6.93;;;0.30;99.90;;;;;;4942697;29;20453;-89
2022/02/19 03:21:20;;;;;;;16.05;7.65;;;0.30;99.90;;;;;;4960166;29;20039;-88
2022/02/19 03:23:47;;;;;;;11.50;7.40;;;0.30;99.90;;;;;;4942695;29;20686;-88
2022/02/19 03:26:12;;;;;;;13.18;7.18;;;0.30;99.90;;;;;;4942786;29;20450;-89
2022/02/19 03:28:39;;;;;;;16.95;8.93;;;0.30;99.90;;;;;;4960906;29;20027;-87
2022/02/19 03:31:05;;;;;;;23.42;12.25;;;0.30;99.90;;;;;;4958310;29;20034;-84
2022/02/19 03:33:30;;;;;;;18.00;11.00;;;0.30;99.90;;;;;;4958104;28;20410;-87
2022/02/19 03:35:56;;;;;;;17.80;11.07;;;0.30;99.90;;;;;;4941695;29;20027;-88
2022/02/19 03:38:22;;;;;;;20.20;10.13;;;0.30;99.90;;;;;;4942595;29;20489;-86
2022/02/19 03:40:47;;;;;;;17.67;9.05;;;0.30;99.90;;;;;;4958081;29;20032;-88
2022/02/19 03:43:13;;;;;;;17.02;8.52;;;0.30;99.90;;;;;;4941363;29;20375;-88
2022/02/19 03:45:43;;;;;;;14.43;7.80;;;0.30;99.90;;;;;;4941769;29;20058;-87
2022/02/19 03:48:09;;;;;;;10.52;6.65;;;0.30;99.90;;;;;;4941490;29;20023;-87
2022/02/19 03:50:36;;;;;;;12.95;6.72;;;0.30;99.90;;;;;;4942097;29;20051;-87
2022/02/19 03:53:02;;;;;;;11.13;6.57;;;0.30;99.90;;;;;;4942787;29;20027;-87
2022/02/19 03:55:28;;;;;;;12.02;6.35;;;0.30;99.90;;;;;;4944398;29;20035;-87
2022/02/19 03:57:54;;;;;;;12.43;6.97;;;0.40;99.90;;;;;;4961747;28;20031;-87
2022/02/19 04:00:22;;;;;;;13.35;6.70;;;0.40;99.90;;;;;;4941154;29;20023;-88
2022/02/19 04:02:48;;;;;;;11.38;6.35;;;0.50;99.90;;;;;;4941306;29;20023;-88
2022/02/19 04:05:15;;;;;;;11.15;6.00;;;0.50;99.90;;;;;;4941091;29;20030;-87
2022/02/19 04:07:41;;;;;;;11.32;5.72;;;0.60;99.90;;;;;;4941471;29;20023;-87
2022/02/19 04:10:08;;;;;;;11.63;5.80;;;0.60;99.90;;;;;;4941072;29;20038;-88
2022/02/19 04:12:34;;;;;;;12.65;6.38;;;0.70;99.90;;;;;;4940526;29;20030;-87
2022/02/19 04:15:00;;;;;;;14.52;6.40;;;0.70;99.90;;;;;;4940734;29;20023;-87
2022/02/19 04:17:27;;;;;;;12.68;7.13;;;0.80;99.90;;;;;;4940828;29;20038;-87
2022/02/19 04:19:53;;;;;;;16.02;7.03;;;0.90;99.90;;;;;;4964292;29;20042;-89
2022/02/19 04:22:20;;;;;;;17.25;7.63;;;0.90;99.90;;;;;;4945922;29;20035;-86
2022/02/19 04:24:46;;;;;;;15.00;7.97;;;0.90;99.90;;;;;;4944974;29;20019;-86
2022/02/19 04:27:13;;;;;;;12.50;6.88;;;1.00;99.90;;;;;;4957795;29;20058;-86
2022/02/19 04:29:39;;;;;;;16.27;7.60;;;1.00;99.90;;;;;;4941001;29;20027;-87
2022/02/19 04:32:06;;;;;;;14.18;7.65;;;1.10;99.90;;;;;;4940490;29;20541;-86
2022/02/19 04:34:32;;;;;;;16.80;7.43;;;1.10;99.90;;;;;;4941786;29;20059;-88
2022/02/19 04:36:58;;;;;;;12.77;7.35;;;1.10;99.90;;;;;;4940674;29;20369;-88
2022/02/19 04:39:23;;;;;;;12.43;6.60;;;1.20;99.90;;;;;;4940513;29;20027;-86
2022/02/19 04:41:49;;;;;;;10.57;6.32;;;1.20;99.90;;;;;;4957746;29;20089;-88
2022/02/19 04:44:15;;;;;;;10.50;6.20;;;1.20;99.90;;;;;;4941412;29;20338;-86
2022/02/19 04:46:41;;;;;;;10.57;6.22;;;1.20;99.90;;;;;;4940442;29;20472;-88
2022/02/19 04:49:07;;;;;;;13.77;6.28;;;1.30;99.90;;;;;;4941042;29;20118;-87
2022/02/19 04:51:34;;;;;;;12.23;6.78;;;1.30;99.90;;;;;;4940755;29;20393;-89
2022/02/19 04:53:59;;;;;;;11.85;6.43;;;1.30;99.90;;;;;;4961907;29;20035;-86
2022/02/19 04:56:25;;;;;;;12.43;6.95;;;1.30;99.90;;;;;;4941777;29;20110;-86
2022/02/19 04:58:51;;;;;;;13.63;7.20;;;1.30;99.90;;;;;;4957894;29;20027;-85
2022/02/19 05:01:16;;;;;;;12.98;6.32;;;1.30;99.90;;;;;;4925142;29;20031;-86
2022/02/19 05:03:42;;;;;;;12.80;6.95;;;1.40;99.90;;;;;;4940123;29;20110;-86
2022/02/19 05:06:12;;;;;;;14.90;7.78;;;1.40;99.90;;;;;;4957294;29;20043;-87
2022/02/19 05:08:38;;;;;;;13.93;7.53;;;1.40;99.90;;;;;;4940401;28;20027;-88
2022/02/19 05:11:04;;;;;;;13.48;6.63;;;1.40;99.90;;;;;;4940513;29;20346;-88
2022/02/19 05:13:29;;;;;;;13.68;7.35;;;1.40;99.90;;;;;;4939561;29;20425;-88
2022/02/19 05:15:55;;;;;;;13.93;7.07;;;1.40;99.90;;;;;;4957299;29;20030;-86
2022/02/19 05:18:20;;;;;;;12.98;7.00;;;1.50;99.90;;;;;;4940209;29;20038;-87
2022/02/19 05:20:46;;;;;;;15.23;6.93;;;1.50;99.90;;;;;;4944090;29;20074;-87
2022/02/19 05:23:13;;;;;;;12.32;7.10;;;1.50;99.90;;;;;;4942295;29;20019;-87
2022/02/19 05:25:40;;;;;;;15.40;7.30;;;1.50;99.90;;;;;;4957055;29;20030;-88
2022/02/19 05:28:10;;;;;;;11.23;6.43;;;1.60;99.90;;;;;;4939741;29;20038;-90
2022/02/19 05:30:36;;;;;;;11.07;6.57;;;1.60;99.90;;;;;;4956911;29;20078;-88
2022/02/19 05:33:02;;;;;;;16.95;6.53;;;1.60;99.90;;;;;;4940824;29;20057;-89
2022/02/19 05:35:28;;;;;;;17.38;7.63;;;1.60;99.90;;;;;;4939725;29;20027;-87
2022/02/19 05:37:54;;;;;;;13.52;6.35;;;1.70;99.90;;;;;;4939241;29;20377;-88
2022/02/19 05:40:20;;;;;;;11.50;6.63;;;1.70;99.90;;;;;;4956497;29;20035;-92
2022/02/19 05:42:46;;;;;;;13.27;6.72;;;1.70;99.90;;;;;;4939923;29;20024;-86
2022/02/19 05:45:11;;;;;;;13.80;6.15;;;1.70;99.90;;;;;;4939951;29;20351;-89
2022/02/19 05:47:37;;;;;;;13.30;6.55;;;1.70;99.90;;;;;;4957601;29;20363;-86
2022/02/19 05:50:03;;;;;;;12.38;6.20;;;1.80;99.90;;;;;;4944459;29;20081;-88
2022/02/19 05:52:29;;;;;;;14.35;6.85;;;1.90;99.90;;;;;;4954603;29;20158;-87
2022/02/19 05:54:55;;;;;;;13.70;6.25;;;1.90;99.90;;;;;;4956483;29;20110;-88
2022/02/19 05:57:23;;;;;;;12.27;6.65;;;2.00;99.90;;;;;;4938857;29;20118;-89
2022/02/19 05:59:50;;;;;;;13.35;6.80;;;2.10;99.90;;;;;;4938859;29;20459;-88
2022/02/19 06:02:16;;;;;;;15.60;6.65;;;2.10;99.90;;;;;;4939014;29;20039;-85
2022/02/19 06:04:42;;;;;;;12.80;6.65;;;2.20;99.90;;;;;;4938934;29;20085;-84
2022/02/19 06:07:08;;;;;;;15.88;7.20;;;2.30;99.90;;;;;;4939206;29;20398;-86
2022/02/19 06:09:34;;;;;;;15.13;6.00;;;2.30;99.90;;;;;;4938986;29;20027;-87
2022/02/19 06:11:59;;;;;;;10.52;5.75;;;2.30;99.90;;;;;;4956044;29;20019;-86
2022/02/19 06:14:25;;;;;;;14.38;6.00;;;2.40;99.90;;;;;;4955713;29;20358;-88
2022/02/19 06:16:51;;;;;;;15.40;6.30;;;2.40;99.90;;;;;;4940778;29;20194;-87
2022/02/19 06:19:17;;;;;;;11.88;6.10;;;2.50;99.90;;;;;;4939811;29;20378;-84
2022/02/19 06:21:43;;;;;;;11.13;5.97;;;2.60;99.90;;;;;;4937878;29;20037;-86
2022/02/19 06:24:10;;;;;;;12.88;6.20;;;2.60;99.90;;;;;;4938191;29;20118;-86
2022/02/19 06:26:35;;;;;;;14.15;5.78;;;2.70;99.90;;;;;;4938663;29;20031;-89
2022/02/19 06:29:02;;;;;;;14.48;6.40;;;2.70;99.90;;;;;;4957127;29;20027;-80
2022/02/19 06:31:28;;;;;;;12.15;5.32;;;2.80;99.90;;;;;;4938219;29;20106;-84
2022/02/19 06:33:54;;;;;;;14.32;6.60;;;2.80;99.90;;;;;;4956104;29;20098;-84
2022/02/19 06:36:21;;;;;;;12.23;6.55;;;2.80;99.90;;;;;;4938452;29;20035;-84
2022/02/19 06:38:47;;;;;;;12.60;6.55;;;2.90;99.90;;;;;;4955650;29;20063;-86
2022/02/19 06:41:13;;;;;;;11.45;5.45;;;2.90;99.90;;;;;;4938510;29;20030;-85
2022/02/19 06:43:39;;;;;;;13.63;5.25;;;3.00;99.90;;;;;;4956350;29;20024;-85
2022/02/19 06:46:08;;;;;;;12.52;5.57;;;3.10;99.90;;;;;;4940113;29;20051;-85
2022/02/19 06:48:36;;;;;;;9.95;5.45;;;3.10;99.90;;;;;;4959095;29;20038;-87
2022/02/19 06:51:01;;;;;;;12.02;5.25;;;3.20;99.90;;;;;;4939869;28;20047;-85
2022/02/19 06:53:27;;;;;;;11.00;5.10;;;3.20;99.90;;;;;;4953085;29;20030;-85
2022/02/19 06:55:53;;;;;;;9.25;4.50;;;3.30;99.90;;;;;;4969208;28;20356;-84
2022/02/19 06:58:19;;;;;;;12.75;5.28;;;3.30;99.90;;;;;;4958450;28;20033;-87
2022/02/19 07:00:46;;;;;;;10.70;5.35;;;3.30;99.80;;;;;;4957374;28;20061;-84
2022/02/19 07:03:12;;;;;;;11.85;5.68;;;3.40;99.30;;;;;;4957454;28;20059;-80
2022/02/19 07:05:38;;;;;;;13.70;5.90;;;3.40;99.10;;;;;;4956966;28;20515;-82
2022/02/19 07:08:04;;;;;;;12.07;5.63;;;3.40;98.60;;;;;;4957796;28;20031;-82
2022/02/19 07:10:30;;;;;;;12.63;5.47;;;3.50;98.30;;;;;;4958765;28;20472;-84
2022/02/19 07:12:56;;;;;;;9.23;4.95;;;3.60;98.30;;;;;;4958010;28;20027;-80
2022/02/19 07:15:22;;;;;;;10.80;5.63;;;3.60;97.70;;;;;;4961315;28;20161;-81
2022/02/19 07:17:49;;;;;;;12.75;4.72;;;3.70;97.80;;;;;;4956803;28;20015;-81
2022/02/19 07:20:15;;;;;;;8.85;4.97;;;3.70;96.30;;;;;;4957108;28;20027;-79
2022/02/19 07:22:41;;;;;;;12.68;5.60;;;3.80;95.30;;;;;;4974190;28;20119;-79
2022/02/19 07:25:07;;;;;;;11.15;5.20;;;3.80;95.20;;;;;;4957964;28;20162;-79
2022/02/19 07:27:40;;;;;;;10.77;5.30;;;3.80;94.80;;;;;;4957248;28;20353;-81
2022/02/19 07:30:07;;;;;;;9.02;4.80;;;3.90;93.70;;;;;;4974833;28;20027;-80
2022/02/19 07:32:35;;;;;;;10.60;4.53;;;4.00;92.60;;;;;;4958484;28;20031;-80
2022/02/19 07:35:00;;;;;;;11.52;4.35;;;4.00;91.30;;;;;;4960704;28;20033;-81
2022/02/19 07:37:26;;;;;;;8.75;3.97;;;4.00;90.90;;;;;;4960733;28;20023;-81
2022/02/19 07:39:52;;;;;;;62.13;30.58;;;4.10;89.70;;;;;;4960700;28;20031;-83
2022/02/19 07:42:17;;;;;;;17.75;9.35;;;4.10;88.10;;;;;;4960716;28;20338;-80
2022/02/19 07:44:43;;;;;;;11.10;4.90;;;4.10;88.30;;;;;;4961084;28;20027;-79
2022/02/19 07:47:09;;;;;;;9.02;4.05;;;4.20;86.20;;;;;;4978371;28;20042;-79
2022/02/19 08:00:36;;;;;;;7.78;3.20;;;4.50;78.00;;;;;;4975074;28;20070;-81
2022/02/19 08:03:02;;;;;;;9.68;3.20;;;4.50;77.00;;;;;;4954715;28;20110;-82
2022/02/19 08:05:27;;;;;;;6.95;3.28;;;4.50;76.50;;;;;;4971582;28;20069;-80
2022/02/19 08:07:53;;;;;;;5.20;3.00;;;4.60;76.10;;;;;;4953990;28;20019;-81
2022/02/19 08:10:19;;;;;;;8.75;3.80;;;4.60;75.60;;;;;;4955330;28;20350;-81
2022/02/19 08:12:44;;;;;;;6.55;3.22;;;4.60;75.80;;;;;;4955066;28;20023;-84
2022/02/19 08:15:10;;;;;;;6.07;3.35;;;4.60;74.20;;;;;;4956351;28;20030;-81
2022/02/19 08:17:36;;;;;;;8.15;3.50;;;4.70;73.30;;;;;;4958326;28;20022;-81
2022/02/19 08:20:03;;;;;;;6.78;2.88;;;4.70;73.60;;;;;;4976863;28;20418;-82
2022/02/19 08:22:29;;;;;;;9.13;3.53;;;4.70;74.30;;;;;;4959644;28;20050;-81
2022/02/19 08:24:54;;;;;;;10.52;3.97;;;4.80;73.40;;;;;;4960577;28;20449;-82
2022/02/19 08:27:20;;;;;;;8.18;3.22;;;4.80;72.70;;;;;;4978793;28;20018;-81
2022/02/19 08:29:46;;;;;;;6.88;3.13;;;4.80;73.20;;;;;;4943706;28;20035;-82
2022/02/19 08:32:12;;;;;;;6.75;3.05;;;4.80;72.60;;;;;;4958994;28;20038;-81
2022/02/19 08:34:37;;;;;;;9.50;3.63;;;4.80;72.50;;;;;;4976494;28;20034;-82
2022/02/19 08:37:03;;;;;;;8.05;3.22;;;4.90;72.60;;;;;;4959532;28;20037;-83
2022/02/19 08:39:29;;;;;;;8.35;3.33;;;5.00;72.00;;;;;;4958921;28;20380;-81
2022/02/19 08:41:55;;;;;;;9.15;3.63;;;5.10;71.60;;;;;;4959313;28;20034;-83
2022/02/19 08:44:20;;;;;;;8.10;3.60;;;5.20;70.70;;;;;;4977063;28;20023;-82
2022/02/19 08:46:46;;;;;;;8.98;3.33;;;5.30;71.20;;;;;;4959802;28;20042;-84
2022/02/19 08:49:12;;;;;;;9.00;3.45;;;5.50;70.50;;;;;;4976548;28;20027;-82
2022/02/19 08:51:37;;;;;;;6.97;3.08;;;5.60;70.30;;;;;;4977084;28;20105;-83
2022/02/19 08:54:03;;;;;;;7.78;3.25;;;5.70;69.80;;;;;;4958820;28;20082;-82
2022/02/19 08:56:29;;;;;;;7.10;2.97;;;5.90;69.70;;;;;;4959059;28;20026;-83
2022/02/19 08:58:57;;;;;;;7.53;3.20;;;5.90;69.00;;;;;;4959006;28;20069;-84
2022/02/19 09:01:27;;;;;;;6.43;3.20;;;5.90;69.40;;;;;;4958999;28;20035;-83
2022/02/19 09:03:53;;;;;;;9.57;3.40;;;6.10;68.10;;;;;;4976409;28;20027;-83
2022/02/19 09:06:19;;;;;;;7.00;3.42;;;6.10;68.10;;;;;;4958878;28;20034;-83
2022/02/19 09:08:46;;;;;;;8.55;3.30;;;6.10;67.80;;;;;;4958943;28;20381;-84
2022/02/19 09:11:11;;;;;;;7.07;2.90;;;6.10;66.80;;;;;;4976279;28;20023;-83
2022/02/19 09:13:37;;;;;;;6.72;3.30;;;6.10;66.90;;;;;;4959570;28;20033;-83
2022/02/19 09:16:03;;;;;;;13.77;3.33;;;6.10;67.20;;;;;;4976910;28;20026;-84
2022/02/19 09:18:29;;;;;;;5.80;3.22;;;6.00;67.50;;;;;;4958723;28;20397;-83
2022/02/19 09:20:55;;;;;;;6.03;2.85;;;6.10;67.60;;;;;;4975912;28;20033;-83
2022/02/19 09:23:20;;;;;;;6.03;2.80;;;6.00;67.70;;;;;;4976094;28;20031;-84
2022/02/19 09:25:49;;;;;;;6.47;2.90;;;6.00;67.40;;;;;;4958259;28;20034;-81
2022/02/19 09:28:15;;;;;;;6.05;2.55;;;6.00;67.60;;;;;;4975885;28;20031;-84
2022/02/19 09:30:41;;;;;;;6.10;2.88;;;6.00;67.10;;;;;;4976446;28;20077;-82
2022/02/19 09:33:06;;;;;;;6.45;2.80;;;6.10;66.80;;;;;;4958194;28;20461;-82
2022/02/19 09:35:34;;;;;;;6.78;2.92;;;6.10;66.80;;;;;;4958262;28;20029;-83
2022/02/19 09:38:00;;;;;;;6.68;2.90;;;6.10;66.80;;;;;;4957988;28;20019;-83
2022/02/19 09:40:25;;;;;;;6.13;2.65;;;6.10;66.80;;;;;;4958278;28;20042;-83
2022/02/19 09:42:51;;;;;;;7.90;2.75;;;6.20;66.40;;;;;;4975706;28;20023;-83
2022/02/19 09:45:17;;;;;;;6.88;2.97;;;6.20;66.20;;;;;;4975604;28;20034;-83
2022/02/19 09:47:44;;;;;;;6.95;2.65;;;6.20;66.10;;;;;;4975289;28;20011;-81
2022/02/19 09:50:11;;;;;;;6.47;2.88;;;6.30;65.70;;;;;;4975837;28;20027;-82
2022/02/19 09:52:38;;;;;;;6.75;2.80;;;6.30;65.70;;;;;;4957928;28;20054;-83
2022/02/19 09:55:05;;;;;;;8.45;3.10;;;6.20;66.20;;;;;;4975684;28;20450;-83
2022/02/19 09:57:31;;;;;;;9.13;2.97;;;6.20;66.50;;;;;;4941351;28;20058;-83
2022/02/19 09:59:56;;;;;;;6.85;3.10;;;6.20;66.10;;;;;;4957739;28;20117;-83
2022/02/19 10:02:33;;;;;;;7.97;3.40;;;6.10;66.90;;;;;;4958032;28;20126;-82
2022/02/19 10:05:24;;;;;;;7.28;3.03;;;6.10;67.20;;;;;;4957992;28;20025;-83
2022/02/19 10:08:04;;;;;;;7.40;3.25;;;6.10;66.90;;;;;;4958591;28;20027;-82
2022/02/19 10:10:31;;;;;;;6.80;3.03;;;6.10;67.20;;;;;;4958219;28;20082;-82
2022/02/19 10:12:57;;;;;;;8.52;3.10;;;6.10;67.50;;;;;;4958230;28;20027;-83
2022/02/19 10:15:37;;;;;;;8.52;3.20;;;6.10;67.40;;;;;;4974938;28;20030;-84
2022/02/19 10:18:24;;;;;;;6.38;3.10;;;6.10;67.30;;;;;;4958212;28;20347;-82
2022/02/19 10:20:50;;;;;;;6.90;3.35;;;6.00;67.50;;;;;;4958043;28;20031;-83
2022/02/19 10:23:16;;;;;;;8.60;3.58;;;6.00;68.00;;;;;;4957575;28;20035;-83
2022/02/19 10:25:42;;;;;;;7.32;3.10;;;6.00;68.10;;;;;;4957769;28;20022;-83
2022/02/19 10:28:13;;;;;;;8.15;3.10;;;6.00;68.20;;;;;;4957561;28;20437;-84
2022/02/19 10:30:48;;;;;;;6.57;3.40;;;6.10;68.30;;;;;;4976651;28;20053;-82
2022/02/19 10:33:16;;;;;;;7.43;3.53;;;6.10;68.20;;;;;;4974864;28;20178;-82
2022/02/19 10:35:42;;;;;;;6.00;2.95;;;6.00;68.70;;;;;;4957444;28;20062;-83
2022/02/19 10:38:13;;;;;;;6.93;3.17;;;6.10;68.70;;;;;;4975653;28;20029;-83
2022/02/19 10:40:42;;;;;;;;;;;6.10;68.80;;;;;;4959234;28;20022;-83
2022/02/19 10:43:22;;;;;;;4.80;2.97;;;6.00;69.40;;;;;;4975576;28;19902;-83
2022/02/19 10:45:59;;;;;;;8.20;3.33;;;6.00;69.60;;;;;;4958026;28;20106;-83
2022/02/19 10:48:31;;;;;;;8.43;3.30;;;6.10;69.80;;;;;;4957522;28;20066;-83
2022/02/19 10:51:11;;;;;;;7.05;3.20;;;6.10;69.70;;;;;;4945128;28;20580;-85
2022/02/19 10:53:37;;;;;;;8.07;3.20;;;6.10;70.60;;;;;;4962578;28;20120;-82
2022/02/19 10:56:11;;;;;;;6.25;3.42;;;6.00;70.50;;;;;;4978016;28;20069;-83
2022/02/19 10:58:38;;;;;;;8.50;3.22;;;6.00;70.90;;;;;;4957477;28;20081;-82
2022/02/19 11:01:19;;;;;;;5.78;3.20;;;6.00;71.50;;;;;;4957508;28;20377;-82
2022/02/19 11:03:45;;;;;;;8.00;3.60;;;5.90;72.10;;;;;;4957703;28;20022;-82
2022/02/19 11:06:11;;;;;;;8.65;3.60;;;5.90;72.80;;;;;;4975118;28;20034;-82
2022/02/19 11:08:37;;;;;;;8.45;3.88;;;5.90;73.30;;;;;;4978233;28;20035;-83
2022/02/19 11:11:03;;;;;;;6.95;3.70;;;5.80;74.20;;;;;;4961879;28;20464;-82
2022/02/19 11:13:31;;;;;;;9.75;3.80;;;5.70;74.60;;;;;;4962204;28;20023;-84
2022/02/19 11:15:57;;;;;;;7.35;3.65;;;5.80;74.80;;;;;;4981832;28;20029;-83
2022/02/19 11:18:24;;;;;;;8.70;3.35;;;5.80;74.90;;;;;;4964321;28;20034;-81
2022/02/19 11:20:53;;;;;;;7.00;3.20;;;5.70;75.30;;;;;;4979233;28;20106;-82
2022/02/19 11:23:21;;;;;;;5.93;3.28;;;5.70;75.40;;;;;;4961263;28;20023;-83
2022/02/19 11:25:51;;;;;;;6.70;3.33;;;5.70;75.50;;;;;;4961046;28;20418;-83
2022/02/19 11:28:17;;;;;;;7.45;3.35;;;5.70;75.60;;;;;;4960845;28;20129;-85
2022/02/19 11:30:52;;;;;;;8.23;3.13;;;5.80;75.20;;;;;;4978230;28;20046;-83
2022/02/19 11:33:20;;;;;;;5.70;3.30;;;5.80;75.40;;;;;;4960672;28;20101;-84
2022/02/19 11:35:46;;;;;;;6.13;2.95;;;5.80;75.70;;;;;;4978354;28;20026;-83
2022/02/19 11:38:35;;;;;;;5.95;3.22;;;5.80;75.70;;;;;;4961440;28;20470;-83
2022/02/19 11:41:07;;;;;;;7.18;3.10;;;5.90;75.40;;;;;;4978294;28;20102;-84
2022/02/19 11:43:38;;;;;;;15.32;3.78;;;5.90;75.00;;;;;;4960689;28;20037;-84
2022/02/19 11:46:14;;;;;;;5.35;3.05;;;6.00;75.00;;;;;;4960905;28;20026;-84
2022/02/19 11:48:44;;;;;;;6.07;2.90;;;6.00;74.90;;;;;;4959616;28;20035;-84
2022/02/19 11:51:11;;;;;;;5.82;2.80;;;6.10;74.60;;;;;;4960206;28;20484;-84
2022/02/19 11:53:37;;;;;;;5.93;2.95;;;6.20;74.70;;;;;;4977771;28;20334;-83
2022/02/19 11:56:10;;;;;;;7.80;3.25;;;6.30;74.50;;;;;;4960333;28;20027;-83
2022/02/19 11:58:59;;;;;;;5.88;2.97;;;6.30;74.40;;;;;;4977939;28;20058;-84
2022/02/19 12:01:25;;;;;;;5.32;3.13;;;6.30;74.20;;;;;;4960594;28;20035;-83
2022/02/19 12:04:10;;;;;;;5.35;3.08;;;6.40;74.30;;;;;;4960585;28;20073;-84
2022/02/19 12:06:38;;;;;;;8.75;3.25;;;6.40;73.30;;;;;;4977905;28;20334;-83
2022/02/19 12:09:24;;;;;;;5.18;3.17;;;6.50;73.40;;;;;;4961102;28;20101;-83
2022/02/19 12:12:06;;;;;;;7.28;3.38;;;6.50;73.50;;;;;;4960281;28;20440;-84
2022/02/19 12:14:56;;;;;;;7.07;3.42;;;6.50;73.70;;;;;;4960102;28;20147;-83
2022/02/19 12:17:23;;;;;;;6.15;3.22;;;6.60;73.60;;;;;;4977565;28;20377;-84
2022/02/19 12:19:51;;;;;;;8.45;3.40;;;6.60;74.10;;;;;;4959037;28;20027;-82
2022/02/19 12:22:36;;;;;;;8.63;3.63;;;6.50;74.30;;;;;;4977165;28;20434;-82
2022/02/19 12:25:10;;;;;;;6.75;3.55;;;6.60;74.10;;;;;;4976984;28;20023;-83
2022/02/19 12:27:37;;;;;;;6.80;2.92;;;6.60;74.20;;;;;;4960424;28;20341;-83
2022/02/19 12:30:22;;;;;;;6.07;3.03;;;6.60;74.00;;;;;;4976563;28;20026;-85
2022/02/19 13:23:51;;;;;;;6.35;3.50;;;5.60;92.50;;;;;;5091728;27;20379;-86
2022/02/19 13:26:34;;;;;;;6.80;3.60;;;5.60;93.80;;;;;;5088180;28;20024;-86
2022/02/19 13:29:01;;;;;;;5.80;3.75;;;5.70;95.40;;;;;;5088560;28;20032;-87
2022/02/19 13:31:29;;;;;;;8.35;4.07;;;5.70;97.30;;;;;;5088606;28;20024;-86
2022/02/19 13:33:55;;;;;;;7.95;4.15;;;5.70;98.60;;;;;;5090567;28;20056;-87
2022/02/19 13:36:21;;;;;;;7.57;4.10;;;5.80;98.90;;;;;;5089878;28;20025;-86
2022/02/19 13:38:47;;;;;;;7.95;4.05;;;5.80;99.50;;;;;;5090067;28;20020;-88
2022/02/19 13:41:13;;;;;;;7.68;4.32;;;5.90;99.40;;;;;;5090721;28;20017;-86
2022/02/19 13:43:39;;;;;;;8.45;4.30;;;5.90;99.90;;;;;;5087754;28;20044;-87
2022/02/19 13:46:17;;;;;;;8.05;4.30;;;5.80;99.90;;;;;;5089481;28;20020;-86
2022/02/19 13:48:55;;;;;;;8.35;4.22;;;5.80;99.90;;;;;;5091060;28;20020;-88
2022/02/19 13:51:41;;;;;;;7.18;4.50;;;5.80;99.90;;;;;;5089573;28;20028;-87
2022/02/19 13:54:24;;;;;;;12.15;4.85;;;5.80;99.90;;;;;;5061275;28;20068;-87